sensor_id;sensor_type;location;lat;lon;timestamp;P1;durP1;ratioP1;P2;durP2;ratioP2
37831;SDS011;23671;38.090;-122.570;2022-08-19T00:01:26;4.53;;;3.38;;
37831;SDS011;23671;38.090;-122.570;2022-08-19T00:03:55;4.28;;;3.08;;
37831;SDS011;23671;38.090;-122.570;2022-08-19T00:06:26;3.72;;;3.17;;
37831;SDS011;23671;38.090;-122.570;2022-08-19T00:08:54;4.22;;;3.20;;
37831;SDS011;23671;38.090;-122.570;2022-08-19T00:11:23;5.55;;;3.30;;
37831;SDS011;23671;38.090;-122.570;2022-08-19T00:13:53;3.45;;;2.97;;
37831;SDS011;23671;38.090;-122.570;2022-08-19T00:16:22;3.30;;;3.00;;
37831;SDS011;23671;38.090;-122.570;2022-08-19T00:18:50;3.45;;;2.85;;
37831;SDS011;23671;38.090;-122.570;2022-08-19T00:21:18;2.97;;;2.67;;
37831;SDS011;23671;38.090;-122.570;2022-08-19T00:23:45;5.30;;;3.35;;
37831;SDS011;23671;38.090;-122.570;2022-08-19T00:26:13;3.85;;;3.38;;
37831;SDS011;23671;38.090;-122.570;2022-08-19T00:28:40;4.30;;;3.22;;
37831;SDS011;23671;38.090;-122.570;2022-08-19T00:31:07;6.07;;;3.97;;
37831;SDS011;23671;38.090;-122.570;2022-08-19T00:33:35;4.60;;;3.20;;
37831;SDS011;23671;38.090;-122.570;2022-08-19T00:36:03;4.82;;;3.17;;
37831;SDS011;23671;38.090;-122.570;2022-08-19T00:38:32;4.22;;;3.10;;
37831;SDS011;23671;38.090;-122.570;2022-08-19T00:41:01;4.88;;;3.20;;
37831;SDS011;23671;38.090;-122.570;2022-08-19T00:43:28;3.55;;;3.25;;
37831;SDS011;23671;38.090;-122.570;2022-08-19T00:45:55;4.70;;;3.20;;
37831;SDS011;23671;38.090;-122.570;2022-08-19T00:54:19;3.83;;;3.47;;
37831;SDS011;23671;38.090;-122.570;2022-08-19T00:56:47;4.50;;;3.88;;
37831;SDS011;23671;38.090;-122.570;2022-08-19T00:59:16;5.30;;;3.80;;
37831;SDS011;23671;38.090;-122.570;2022-08-19T01:01:44;4.38;;;3.97;;
37831;SDS011;23671;38.090;-122.570;2022-08-19T01:04:12;5.22;;;3.80;;
37831;SDS011;23671;38.090;-122.570;2022-08-19T01:06:40;4.90;;;3.65;;
37831;SDS011;23671;38.090;-122.570;2022-08-19T01:09:08;6.90;;;3.87;;
37831;SDS011;23671;38.090;-122.570;2022-08-19T01:11:38;4.35;;;3.95;;
37831;SDS011;23671;38.090;-122.570;2022-08-19T01:14:09;4.28;;;3.88;;
37831;SDS011;23671;38.090;-122.570;2022-08-19T01:16:37;4.65;;;4.10;;
37831;SDS011;23671;38.090;-122.570;2022-08-19T01:19:15;5.43;;;4.47;;
37831;SDS011;23671;38.090;-122.570;2022-08-19T01:22:06;5.82;;;4.15;;
37831;SDS011;23671;38.090;-122.570;2022-08-19T01:24:38;4.85;;;4.05;;
37831;SDS011;23671;38.090;-122.570;2022-08-19T01:27:06;5.60;;;4.53;;
37831;SDS011;23671;38.090;-122.570;2022-08-19T01:29:36;5.70;;;4.05;;
37831;SDS011;23671;38.090;-122.570;2022-08-19T01:32:05;4.47;;;4.07;;
37831;SDS011;23671;38.090;-122.570;2022-08-19T01:34:34;5.25;;;4.45;;
37831;SDS011;23671;38.090;-122.570;2022-08-19T01:37:05;5.20;;;4.27;;
37831;SDS011;23671;38.090;-122.570;2022-08-19T01:39:37;5.00;;;4.50;;
37831;SDS011;23671;38.090;-122.570;2022-08-19T01:42:06;5.07;;;4.25;;
37831;SDS011;23671;38.090;-122.570;2022-08-19T01:44:37;6.13;;;4.90;;
37831;SDS011;23671;38.090;-122.570;2022-08-19T01:47:06;5.18;;;4.53;;
37831;SDS011;23671;38.090;-122.570;2022-08-19T01:52:02;5.43;;;4.00;;
37831;SDS011;23671;38.090;-122.570;2022-08-19T01:54:30;5.10;;;4.32;;
37831;SDS011;23671;38.090;-122.570;2022-08-19T01:57:05;5.53;;;4.43;;
37831;SDS011;23671;38.090;-122.570;2022-08-19T01:59:35;4.68;;;3.80;;
37831;SDS011;23671;38.090;-122.570;2022-08-19T02:02:03;4.78;;;3.90;;
37831;SDS011;23671;38.090;-122.570;2022-08-19T02:04:34;4.78;;;4.22;;
37831;SDS011;23671;38.090;-122.570;2022-08-19T02:07:03;4.78;;;4.30;;
37831;SDS011;23671;38.090;-122.570;2022-08-19T02:09:31;5.22;;;4.25;;
37831;SDS011;23671;38.090;-122.570;2022-08-19T02:11:58;5.03;;;4.33;;
37831;SDS011;23671;38.090;-122.570;2022-08-19T02:14:25;4.90;;;4.40;;
37831;SDS011;23671;38.090;-122.570;2022-08-19T02:16:52;5.07;;;4.30;;
37831;SDS011;23671;38.090;-122.570;2022-08-19T02:19:19;4.53;;;4.07;;
37831;SDS011;23671;38.090;-122.570;2022-08-19T02:21:46;5.28;;;4.05;;
37831;SDS011;23671;38.090;-122.570;2022-08-19T02:24:13;4.55;;;4.05;;
37831;SDS011;23671;38.090;-122.570;2022-08-19T02:26:40;5.57;;;4.13;;
37831;SDS011;23671;38.090;-122.570;2022-08-19T02:29:08;4.88;;;4.28;;
37831;SDS011;23671;38.090;-122.570;2022-08-19T02:31:35;5.57;;;4.50;;
37831;SDS011;23671;38.090;-122.570;2022-08-19T02:34:02;7.03;;;4.40;;
37831;SDS011;23671;38.090;-122.570;2022-08-19T02:36:29;5.40;;;4.15;;
37831;SDS011;23671;38.090;-122.570;2022-08-19T02:38:56;4.60;;;4.20;;
37831;SDS011;23671;38.090;-122.570;2022-08-19T02:41:27;5.03;;;4.22;;
37831;SDS011;23671;38.090;-122.570;2022-08-19T02:43:56;5.03;;;4.22;;
37831;SDS011;23671;38.090;-122.570;2022-08-19T02:46:27;4.20;;;3.80;;
37831;SDS011;23671;38.090;-122.570;2022-08-19T02:48:56;4.35;;;3.85;;
37831;SDS011;23671;38.090;-122.570;2022-08-19T02:51:27;4.43;;;3.92;;
37831;SDS011;23671;38.090;-122.570;2022-08-19T02:53:58;5.05;;;4.25;;
37831;SDS011;23671;38.090;-122.570;2022-08-19T02:56:25;4.32;;;3.90;;
37831;SDS011;23671;38.090;-122.570;2022-08-19T02:58:55;5.10;;;3.88;;
37831;SDS011;23671;38.090;-122.570;2022-08-19T03:01:25;4.03;;;3.58;;
37831;SDS011;23671;38.090;-122.570;2022-08-19T03:03:54;4.53;;;4.05;;
37831;SDS011;23671;38.090;-122.570;2022-08-19T03:06:23;5.78;;;3.60;;
37831;SDS011;23671;38.090;-122.570;2022-08-19T03:08:51;4.70;;;3.87;;
37831;SDS011;23671;38.090;-122.570;2022-08-19T03:11:23;4.07;;;3.53;;
37831;SDS011;23671;38.090;-122.570;2022-08-19T03:13:55;4.20;;;3.60;;
37831;SDS011;23671;38.090;-122.570;2022-08-19T03:16:24;5.05;;;3.65;;
37831;SDS011;23671;38.090;-122.570;2022-08-19T03:18:55;4.70;;;3.65;;
37831;SDS011;23671;38.090;-122.570;2022-08-19T03:21:30;4.25;;;3.60;;
37831;SDS011;23671;38.090;-122.570;2022-08-19T03:23:58;5.05;;;3.80;;
37831;SDS011;23671;38.090;-122.570;2022-08-19T03:26:28;3.97;;;3.58;;
37831;SDS011;23671;38.090;-122.570;2022-08-19T03:28:55;3.85;;;3.47;;
37831;SDS011;23671;38.090;-122.570;2022-08-19T03:31:23;4.43;;;3.70;;
37831;SDS011;23671;38.090;-122.570;2022-08-19T03:33:52;4.20;;;3.38;;
37831;SDS011;23671;38.090;-122.570;2022-08-19T03:36:20;4.53;;;3.53;;
37831;SDS011;23671;38.090;-122.570;2022-08-19T03:38:50;3.60;;;3.30;;
37831;SDS011;23671;38.090;-122.570;2022-08-19T03:41:23;3.53;;;3.22;;
37831;SDS011;23671;38.090;-122.570;2022-08-19T03:43:56;4.38;;;3.38;;
37831;SDS011;23671;38.090;-122.570;2022-08-19T03:46:24;3.47;;;3.17;;
37831;SDS011;23671;38.090;-122.570;2022-08-19T03:48:54;3.92;;;3.42;;
37831;SDS011;23671;38.090;-122.570;2022-08-19T03:51:24;3.40;;;3.03;;
37831;SDS011;23671;38.090;-122.570;2022-08-19T03:53:57;95.40;;;63.25;;
37831;SDS011;23671;38.090;-122.570;2022-08-19T03:56:26;55.00;;;39.65;;
37831;SDS011;23671;38.090;-122.570;2022-08-19T03:58:55;70.22;;;50.22;;
37831;SDS011;23671;38.090;-122.570;2022-08-19T04:01:25;49.30;;;35.35;;
37831;SDS011;23671;38.090;-122.570;2022-08-19T04:03:55;40.63;;;29.75;;
37831;SDS011;23671;38.090;-122.570;2022-08-19T04:06:25;44.33;;;32.33;;
37831;SDS011;23671;38.090;-122.570;2022-08-19T04:08:54;40.80;;;30.00;;
37831;SDS011;23671;38.090;-122.570;2022-08-19T04:11:24;43.88;;;30.13;;
37831;SDS011;23671;38.090;-122.570;2022-08-19T04:13:52;35.33;;;27.02;;
37831;SDS011;23671;38.090;-122.570;2022-08-19T04:16:22;31.30;;;24.75;;
37831;SDS011;23671;38.090;-122.570;2022-08-19T04:18:56;32.25;;;24.08;;
37831;SDS011;23671;38.090;-122.570;2022-08-19T04:21:25;31.40;;;23.13;;
37831;SDS011;23671;38.090;-122.570;2022-08-19T04:23:53;30.13;;;23.52;;
37831;SDS011;23671;38.090;-122.570;2022-08-19T04:26:26;28.85;;;21.50;;
37831;SDS011;23671;38.090;-122.570;2022-08-19T04:28:58;29.00;;;20.98;;
37831;SDS011;23671;38.090;-122.570;2022-08-19T04:31:29;28.02;;;20.38;;
37831;SDS011;23671;38.090;-122.570;2022-08-19T04:34:00;26.13;;;19.50;;
37831;SDS011;23671;38.090;-122.570;2022-08-19T04:36:30;25.25;;;19.00;;
37831;SDS011;23671;38.090;-122.570;2022-08-19T04:39:00;23.50;;;17.45;;
37831;SDS011;23671;38.090;-122.570;2022-08-19T04:41:32;22.92;;;17.50;;
37831;SDS011;23671;38.090;-122.570;2022-08-19T04:44:18;21.20;;;16.33;;
37831;SDS011;23671;38.090;-122.570;2022-08-19T04:46:47;19.38;;;15.13;;
37831;SDS011;23671;38.090;-122.570;2022-08-19T04:49:16;20.75;;;15.73;;
37831;SDS011;23671;38.090;-122.570;2022-08-19T04:51:47;19.67;;;14.90;;
37831;SDS011;23671;38.090;-122.570;2022-08-19T04:54:16;19.10;;;14.35;;
37831;SDS011;23671;38.090;-122.570;2022-08-19T04:56:50;17.73;;;13.77;;
37831;SDS011;23671;38.090;-122.570;2022-08-19T04:59:19;19.55;;;14.15;;
37831;SDS011;23671;38.090;-122.570;2022-08-19T05:01:47;16.70;;;12.03;;
37831;SDS011;23671;38.090;-122.570;2022-08-19T05:04:15;16.13;;;12.15;;
37831;SDS011;23671;38.090;-122.570;2022-08-19T05:06:45;14.77;;;11.55;;
37831;SDS011;23671;38.090;-122.570;2022-08-19T05:15:04;12.98;;;9.63;;
37831;SDS011;23671;38.090;-122.570;2022-08-19T05:17:33;11.68;;;9.13;;
37831;SDS011;23671;38.090;-122.570;2022-08-19T05:20:02;13.13;;;10.38;;
37831;SDS011;23671;38.090;-122.570;2022-08-19T05:22:48;12.25;;;9.30;;
37831;SDS011;23671;38.090;-122.570;2022-08-19T05:25:17;12.30;;;8.95;;
37831;SDS011;23671;38.090;-122.570;2022-08-19T05:27:45;10.38;;;8.27;;
37831;SDS011;23671;38.090;-122.570;2022-08-19T05:30:13;10.33;;;8.30;;
37831;SDS011;23671;38.090;-122.570;2022-08-19T05:32:41;10.00;;;8.27;;
37831;SDS011;23671;38.090;-122.570;2022-08-19T05:35:08;10.75;;;8.32;;
37831;SDS011;23671;38.090;-122.570;2022-08-19T05:37:36;8.70;;;7.23;;
37831;SDS011;23671;38.090;-122.570;2022-08-19T05:40:05;10.27;;;7.70;;
37831;SDS011;23671;38.090;-122.570;2022-08-19T05:42:33;8.63;;;6.80;;
37831;SDS011;23671;38.090;-122.570;2022-08-19T05:45:00;8.77;;;6.88;;
37831;SDS011;23671;38.090;-122.570;2022-08-19T05:47:27;9.43;;;7.05;;
37831;SDS011;23671;38.090;-122.570;2022-08-19T05:49:54;8.80;;;6.75;;
37831;SDS011;23671;38.090;-122.570;2022-08-19T05:52:21;8.05;;;6.30;;
37831;SDS011;23671;38.090;-122.570;2022-08-19T05:54:48;7.38;;;5.80;;
37831;SDS011;23671;38.090;-122.570;2022-08-19T05:57:16;7.43;;;5.68;;
37831;SDS011;23671;38.090;-122.570;2022-08-19T05:59:44;8.13;;;6.07;;
37831;SDS011;23671;38.090;-122.570;2022-08-19T06:04:40;7.57;;;5.78;;
37831;SDS011;23671;38.090;-122.570;2022-08-19T06:07:08;7.00;;;5.65;;
37831;SDS011;23671;38.090;-122.570;2022-08-19T06:09:35;8.38;;;6.05;;
37831;SDS011;23671;38.090;-122.570;2022-08-19T06:12:02;7.68;;;5.95;;
37831;SDS011;23671;38.090;-122.570;2022-08-19T06:14:30;5.72;;;5.05;;
37831;SDS011;23671;38.090;-122.570;2022-08-19T06:16:59;7.50;;;4.93;;
37831;SDS011;23671;38.090;-122.570;2022-08-19T06:19:28;6.13;;;4.75;;
37831;SDS011;23671;38.090;-122.570;2022-08-19T06:21:56;5.73;;;4.67;;
37831;SDS011;23671;38.090;-122.570;2022-08-19T06:24:24;5.65;;;4.68;;
37831;SDS011;23671;38.090;-122.570;2022-08-19T06:26:53;6.22;;;4.70;;
37831;SDS011;23671;38.090;-122.570;2022-08-19T06:29:22;6.07;;;4.33;;
37831;SDS011;23671;38.090;-122.570;2022-08-19T06:31:51;5.50;;;4.90;;
37831;SDS011;23671;38.090;-122.570;2022-08-19T06:34:19;4.90;;;4.18;;
37831;SDS011;23671;38.090;-122.570;2022-08-19T06:36:47;5.55;;;4.47;;
37831;SDS011;23671;38.090;-122.570;2022-08-19T06:39:21;4.45;;;3.83;;
37831;SDS011;23671;38.090;-122.570;2022-08-19T06:41:51;4.95;;;3.90;;
37831;SDS011;23671;38.090;-122.570;2022-08-19T06:44:21;4.63;;;3.70;;
37831;SDS011;23671;38.090;-122.570;2022-08-19T06:46:51;4.45;;;3.55;;
37831;SDS011;23671;38.090;-122.570;2022-08-19T06:49:22;5.18;;;3.58;;
37831;SDS011;23671;38.090;-122.570;2022-08-19T06:51:50;3.83;;;3.22;;
37831;SDS011;23671;38.090;-122.570;2022-08-19T06:54:18;4.22;;;3.42;;
37831;SDS011;23671;38.090;-122.570;2022-08-19T06:56:45;3.95;;;3.28;;
37831;SDS011;23671;38.090;-122.570;2022-08-19T06:59:14;4.43;;;3.67;;
37831;SDS011;23671;38.090;-122.570;2022-08-19T07:01:48;3.72;;;3.03;;
37831;SDS011;23671;38.090;-122.570;2022-08-19T07:04:20;3.10;;;2.80;;
37831;SDS011;23671;38.090;-122.570;2022-08-19T07:06:50;4.13;;;3.08;;
37831;SDS011;23671;38.090;-122.570;2022-08-19T07:09:23;4.20;;;3.10;;
37831;SDS011;23671;38.090;-122.570;2022-08-19T07:11:52;4.18;;;3.53;;
37831;SDS011;23671;38.090;-122.570;2022-08-19T07:16:49;3.78;;;2.92;;
37831;SDS011;23671;38.090;-122.570;2022-08-19T07:19:20;3.53;;;2.88;;
37831;SDS011;23671;38.090;-122.570;2022-08-19T07:21:50;3.17;;;2.65;;
37831;SDS011;23671;38.090;-122.570;2022-08-19T07:24:22;3.53;;;3.10;;
37831;SDS011;23671;38.090;-122.570;2022-08-19T07:26:51;4.50;;;3.05;;
37831;SDS011;23671;38.090;-122.570;2022-08-19T07:29:22;3.08;;;2.67;;
37831;SDS011;23671;38.090;-122.570;2022-08-19T07:31:52;3.20;;;2.65;;
37831;SDS011;23671;38.090;-122.570;2022-08-19T07:34:22;3.35;;;2.65;;
37831;SDS011;23671;38.090;-122.570;2022-08-19T07:36:49;3.07;;;2.60;;
37831;SDS011;23671;38.090;-122.570;2022-08-19T07:39:21;2.95;;;2.55;;
37831;SDS011;23671;38.090;-122.570;2022-08-19T07:41:51;3.15;;;2.85;;
37831;SDS011;23671;38.090;-122.570;2022-08-19T07:44:19;2.58;;;2.28;;
37831;SDS011;23671;38.090;-122.570;2022-08-19T07:46:48;3.35;;;2.60;;
37831;SDS011;23671;38.090;-122.570;2022-08-19T07:49:17;3.97;;;2.97;;
37831;SDS011;23671;38.090;-122.570;2022-08-19T07:51:46;5.38;;;3.28;;
37831;SDS011;23671;38.090;-122.570;2022-08-19T07:57:02;4.68;;;3.03;;
37831;SDS011;23671;38.090;-122.570;2022-08-19T07:59:29;4.53;;;2.90;;
37831;SDS011;23671;38.090;-122.570;2022-08-19T08:01:57;4.55;;;3.28;;
37831;SDS011;23671;38.090;-122.570;2022-08-19T08:04:26;3.97;;;2.85;;
37831;SDS011;23671;38.090;-122.570;2022-08-19T08:07:12;4.28;;;3.10;;
37831;SDS011;23671;38.090;-122.570;2022-08-19T08:09:58;5.43;;;3.47;;
37831;SDS011;23671;38.090;-122.570;2022-08-19T08:12:27;4.88;;;3.33;;
37831;SDS011;23671;38.090;-122.570;2022-08-19T08:15:07;5.10;;;3.03;;
37831;SDS011;23671;38.090;-122.570;2022-08-19T08:17:37;5.65;;;3.13;;
37831;SDS011;23671;38.090;-122.570;2022-08-19T08:20:05;5.65;;;3.42;;
37831;SDS011;23671;38.090;-122.570;2022-08-19T08:22:32;4.80;;;3.30;;
37831;SDS011;23671;38.090;-122.570;2022-08-19T08:25:20;7.00;;;3.35;;
37831;SDS011;23671;38.090;-122.570;2022-08-19T08:27:48;7.43;;;3.92;;
37831;SDS011;23671;38.090;-122.570;2022-08-19T08:30:20;5.43;;;3.40;;
37831;SDS011;23671;38.090;-122.570;2022-08-19T08:32:49;6.53;;;3.47;;
37831;SDS011;23671;38.090;-122.570;2022-08-19T08:35:18;6.50;;;3.67;;
37831;SDS011;23671;38.090;-122.570;2022-08-19T08:37:47;5.97;;;3.83;;
37831;SDS011;23671;38.090;-122.570;2022-08-19T08:42:57;5.90;;;3.50;;
37831;SDS011;23671;38.090;-122.570;2022-08-19T08:45:32;8.13;;;4.70;;
37831;SDS011;23671;38.090;-122.570;2022-08-19T08:48:05;9.38;;;4.22;;
37831;SDS011;23671;38.090;-122.570;2022-08-19T08:50:57;7.97;;;4.88;;
37831;SDS011;23671;38.090;-122.570;2022-08-19T08:53:26;7.80;;;4.63;;
37831;SDS011;23671;38.090;-122.570;2022-08-19T08:58:31;8.02;;;4.25;;
37831;SDS011;23671;38.090;-122.570;2022-08-19T09:01:10;8.10;;;4.38;;
37831;SDS011;23671;38.090;-122.570;2022-08-19T09:03:39;9.15;;;4.13;;
37831;SDS011;23671;38.090;-122.570;2022-08-19T09:12:12;8.40;;;4.65;;
37831;SDS011;23671;38.090;-122.570;2022-08-19T09:15:07;8.07;;;4.03;;
37831;SDS011;23671;38.090;-122.570;2022-08-19T09:17:37;8.82;;;4.28;;
37831;SDS011;23671;38.090;-122.570;2022-08-19T09:22:34;7.88;;;4.70;;
37831;SDS011;23671;38.090;-122.570;2022-08-19T09:25:06;8.85;;;4.45;;
37831;SDS011;23671;38.090;-122.570;2022-08-19T09:27:35;10.07;;;4.82;;
37831;SDS011;23671;38.090;-122.570;2022-08-19T09:30:04;10.02;;;5.35;;
37831;SDS011;23671;38.090;-122.570;2022-08-19T09:32:33;8.98;;;5.03;;
37831;SDS011;23671;38.090;-122.570;2022-08-19T09:35:00;10.60;;;5.10;;
37831;SDS011;23671;38.090;-122.570;2022-08-19T09:37:27;11.27;;;5.10;;
37831;SDS011;23671;38.090;-122.570;2022-08-19T09:39:54;12.45;;;5.43;;
37831;SDS011;23671;38.090;-122.570;2022-08-19T09:42:22;9.82;;;5.90;;
37831;SDS011;23671;38.090;-122.570;2022-08-19T09:44:49;10.98;;;5.80;;
37831;SDS011;23671;38.090;-122.570;2022-08-19T09:47:16;10.43;;;5.55;;
37831;SDS011;23671;38.090;-122.570;2022-08-19T09:49:43;11.45;;;5.75;;
37831;SDS011;23671;38.090;-122.570;2022-08-19T09:52:10;8.68;;;5.18;;
37831;SDS011;23671;38.090;-122.570;2022-08-19T09:54:38;12.40;;;5.72;;
37831;SDS011;23671;38.090;-122.570;2022-08-19T09:57:05;10.70;;;5.90;;
37831;SDS011;23671;38.090;-122.570;2022-08-19T09:59:32;9.43;;;5.70;;
37831;SDS011;23671;38.090;-122.570;2022-08-19T10:01:59;12.30;;;6.68;;
37831;SDS011;23671;38.090;-122.570;2022-08-19T10:04:26;11.88;;;6.07;;
37831;SDS011;23671;38.090;-122.570;2022-08-19T10:07:13;10.68;;;5.97;;
37831;SDS011;23671;38.090;-122.570;2022-08-19T10:09:40;11.35;;;6.07;;
37831;SDS011;23671;38.090;-122.570;2022-08-19T10:12:07;11.18;;;6.60;;
37831;SDS011;23671;38.090;-122.570;2022-08-19T10:14:35;10.95;;;5.90;;
37831;SDS011;23671;38.090;-122.570;2022-08-19T10:17:04;7.97;;;5.10;;
37831;SDS011;23671;38.090;-122.570;2022-08-19T10:19:31;10.07;;;5.93;;
37831;SDS011;23671;38.090;-122.570;2022-08-19T10:22:04;10.25;;;6.47;;
37831;SDS011;23671;38.090;-122.570;2022-08-19T10:24:33;9.00;;;5.68;;
37831;SDS011;23671;38.090;-122.570;2022-08-19T10:27:01;10.38;;;6.00;;
37831;SDS011;23671;38.090;-122.570;2022-08-19T10:29:31;10.30;;;5.60;;
37831;SDS011;23671;38.090;-122.570;2022-08-19T10:32:03;11.27;;;6.22;;
37831;SDS011;23671;38.090;-122.570;2022-08-19T10:34:32;10.40;;;5.95;;
37831;SDS011;23671;38.090;-122.570;2022-08-19T10:37:02;11.57;;;6.10;;
37831;SDS011;23671;38.090;-122.570;2022-08-19T10:39:31;13.05;;;6.05;;
37831;SDS011;23671;38.090;-122.570;2022-08-19T10:44:31;12.40;;;5.90;;
37831;SDS011;23671;38.090;-122.570;2022-08-19T10:47:00;12.20;;;5.97;;
37831;SDS011;23671;38.090;-122.570;2022-08-19T10:49:28;13.10;;;6.30;;
37831;SDS011;23671;38.090;-122.570;2022-08-19T10:51:57;12.95;;;7.00;;
37831;SDS011;23671;38.090;-122.570;2022-08-19T10:54:42;11.75;;;7.07;;
37831;SDS011;23671;38.090;-122.570;2022-08-19T10:57:47;11.43;;;5.85;;
37831;SDS011;23671;38.090;-122.570;2022-08-19T11:00:14;11.00;;;6.30;;
37831;SDS011;23671;38.090;-122.570;2022-08-19T11:02:41;12.65;;;6.43;;
37831;SDS011;23671;38.090;-122.570;2022-08-19T11:05:08;12.65;;;6.07;;
37831;SDS011;23671;38.090;-122.570;2022-08-19T11:07:40;12.43;;;6.40;;
37831;SDS011;23671;38.090;-122.570;2022-08-19T11:10:08;11.93;;;6.43;;
37831;SDS011;23671;38.090;-122.570;2022-08-19T11:12:37;11.05;;;6.20;;
37831;SDS011;23671;38.090;-122.570;2022-08-19T11:15:07;10.57;;;6.03;;
37831;SDS011;23671;38.090;-122.570;2022-08-19T11:17:39;9.20;;;6.10;;
37831;SDS011;23671;38.090;-122.570;2022-08-19T11:20:06;10.02;;;5.90;;
37831;SDS011;23671;38.090;-122.570;2022-08-19T11:22:34;9.80;;;5.78;;
37831;SDS011;23671;38.090;-122.570;2022-08-19T11:25:01;9.70;;;6.43;;
37831;SDS011;23671;38.090;-122.570;2022-08-19T11:27:29;10.38;;;6.28;;
37831;SDS011;23671;38.090;-122.570;2022-08-19T11:29:56;11.02;;;6.03;;
37831;SDS011;23671;38.090;-122.570;2022-08-19T11:32:23;11.75;;;6.55;;
37831;SDS011;23671;38.090;-122.570;2022-08-19T11:34:50;10.98;;;6.25;;
37831;SDS011;23671;38.090;-122.570;2022-08-19T11:37:16;9.38;;;5.78;;
37831;SDS011;23671;38.090;-122.570;2022-08-19T11:39:43;11.43;;;5.88;;
37831;SDS011;23671;38.090;-122.570;2022-08-19T11:42:10;9.20;;;5.28;;
37831;SDS011;23671;38.090;-122.570;2022-08-19T11:44:56;9.77;;;5.90;;
37831;SDS011;23671;38.090;-122.570;2022-08-19T11:47:23;12.10;;;5.70;;
37831;SDS011;23671;38.090;-122.570;2022-08-19T11:49:51;8.03;;;5.33;;
37831;SDS011;23671;38.090;-122.570;2022-08-19T11:52:18;10.23;;;5.82;;
37831;SDS011;23671;38.090;-122.570;2022-08-19T11:54:45;10.95;;;5.70;;
37831;SDS011;23671;38.090;-122.570;2022-08-19T11:57:12;9.82;;;5.82;;
37831;SDS011;23671;38.090;-122.570;2022-08-19T11:59:42;10.40;;;5.25;;
37831;SDS011;23671;38.090;-122.570;2022-08-19T12:02:13;9.55;;;5.53;;
37831;SDS011;23671;38.090;-122.570;2022-08-19T12:04:40;9.65;;;5.70;;
37831;SDS011;23671;38.090;-122.570;2022-08-19T12:07:08;9.80;;;6.18;;
37831;SDS011;23671;38.090;-122.570;2022-08-19T12:09:34;8.30;;;5.00;;
37831;SDS011;23671;38.090;-122.570;2022-08-19T12:12:04;9.98;;;5.65;;
37831;SDS011;23671;38.090;-122.570;2022-08-19T12:14:31;11.93;;;6.07;;
37831;SDS011;23671;38.090;-122.570;2022-08-19T12:16:59;11.15;;;5.95;;
37831;SDS011;23671;38.090;-122.570;2022-08-19T12:19:27;9.38;;;5.50;;
37831;SDS011;23671;38.090;-122.570;2022-08-19T12:21:57;8.02;;;4.72;;
37831;SDS011;23671;38.090;-122.570;2022-08-19T12:24:29;9.02;;;5.25;;
37831;SDS011;23671;38.090;-122.570;2022-08-19T12:26:58;9.40;;;5.57;;
37831;SDS011;23671;38.090;-122.570;2022-08-19T12:31:54;9.30;;;5.25;;
37831;SDS011;23671;38.090;-122.570;2022-08-19T12:34:28;6.95;;;5.18;;
37831;SDS011;23671;38.090;-122.570;2022-08-19T12:36:56;7.85;;;4.88;;
37831;SDS011;23671;38.090;-122.570;2022-08-19T12:39:24;9.48;;;5.22;;
37831;SDS011;23671;38.090;-122.570;2022-08-19T12:41:51;9.30;;;5.40;;
37831;SDS011;23671;38.090;-122.570;2022-08-19T12:44:18;7.43;;;4.53;;
37831;SDS011;23671;38.090;-122.570;2022-08-19T12:46:46;7.50;;;5.50;;
37831;SDS011;23671;38.090;-122.570;2022-08-19T12:49:14;7.78;;;4.45;;
37831;SDS011;23671;38.090;-122.570;2022-08-19T12:51:41;8.18;;;5.20;;
37831;SDS011;23671;38.090;-122.570;2022-08-19T12:54:08;7.78;;;5.13;;
37831;SDS011;23671;38.090;-122.570;2022-08-19T12:56:36;7.75;;;4.80;;
37831;SDS011;23671;38.090;-122.570;2022-08-19T12:59:03;6.25;;;4.28;;
37831;SDS011;23671;38.090;-122.570;2022-08-19T13:03:58;7.45;;;5.03;;
37831;SDS011;23671;38.090;-122.570;2022-08-19T13:06:26;8.05;;;4.65;;
37831;SDS011;23671;38.090;-122.570;2022-08-19T13:08:53;6.47;;;4.25;;
37831;SDS011;23671;38.090;-122.570;2022-08-19T13:11:22;6.30;;;4.35;;
37831;SDS011;23671;38.090;-122.570;2022-08-19T13:13:52;7.10;;;4.65;;
37831;SDS011;23671;38.090;-122.570;2022-08-19T13:16:20;7.65;;;4.60;;
37831;SDS011;23671;38.090;-122.570;2022-08-19T13:18:48;6.95;;;4.57;;
37831;SDS011;23671;38.090;-122.570;2022-08-19T13:21:19;7.18;;;4.35;;
37831;SDS011;23671;38.090;-122.570;2022-08-19T13:23:49;6.10;;;4.25;;
37831;SDS011;23671;38.090;-122.570;2022-08-19T13:26:16;7.47;;;4.35;;
37831;SDS011;23671;38.090;-122.570;2022-08-19T13:28:44;5.55;;;3.80;;
37831;SDS011;23671;38.090;-122.570;2022-08-19T13:31:30;5.80;;;4.03;;
37831;SDS011;23671;38.090;-122.570;2022-08-19T13:34:18;5.75;;;3.90;;
37831;SDS011;23671;38.090;-122.570;2022-08-19T13:36:54;6.03;;;3.63;;
37831;SDS011;23671;38.090;-122.570;2022-08-19T13:39:21;6.63;;;3.50;;
37831;SDS011;23671;38.090;-122.570;2022-08-19T13:41:49;5.85;;;3.35;;
37831;SDS011;23671;38.090;-122.570;2022-08-19T13:44:16;5.78;;;3.75;;
37831;SDS011;23671;38.090;-122.570;2022-08-19T13:46:44;6.40;;;3.97;;
37831;SDS011;23671;38.090;-122.570;2022-08-19T13:49:13;5.22;;;3.35;;
37831;SDS011;23671;38.090;-122.570;2022-08-19T13:51:41;6.03;;;3.50;;
37831;SDS011;23671;38.090;-122.570;2022-08-19T13:54:09;5.97;;;3.75;;
37831;SDS011;23671;38.090;-122.570;2022-08-19T13:56:43;7.88;;;4.07;;
37831;SDS011;23671;38.090;-122.570;2022-08-19T13:59:11;6.78;;;4.15;;
37831;SDS011;23671;38.090;-122.570;2022-08-19T14:01:39;4.97;;;3.47;;
37831;SDS011;23671;38.090;-122.570;2022-08-19T14:04:07;4.32;;;3.40;;
37831;SDS011;23671;38.090;-122.570;2022-08-19T14:06:34;4.03;;;3.22;;
37831;SDS011;23671;38.090;-122.570;2022-08-19T14:09:02;5.65;;;3.63;;
37831;SDS011;23671;38.090;-122.570;2022-08-19T14:11:30;6.07;;;3.83;;
37831;SDS011;23671;38.090;-122.570;2022-08-19T14:13:57;5.07;;;3.25;;
37831;SDS011;23671;38.090;-122.570;2022-08-19T14:16:24;4.68;;;3.30;;
37831;SDS011;23671;38.090;-122.570;2022-08-19T14:18:52;4.75;;;3.25;;
37831;SDS011;23671;38.090;-122.570;2022-08-19T14:21:21;4.30;;;3.53;;
37831;SDS011;23671;38.090;-122.570;2022-08-19T14:23:50;5.63;;;3.20;;
37831;SDS011;23671;38.090;-122.570;2022-08-19T14:26:18;5.13;;;3.20;;
37831;SDS011;23671;38.090;-122.570;2022-08-19T14:28:46;4.03;;;2.90;;
37831;SDS011;23671;38.090;-122.570;2022-08-19T14:31:15;5.57;;;3.88;;
37831;SDS011;23671;38.090;-122.570;2022-08-19T14:33:48;4.03;;;3.00;;
37831;SDS011;23671;38.090;-122.570;2022-08-19T14:36:16;4.47;;;3.10;;
37831;SDS011;23671;38.090;-122.570;2022-08-19T14:38:45;4.35;;;2.92;;
37831;SDS011;23671;38.090;-122.570;2022-08-19T14:43:45;3.58;;;2.72;;
37831;SDS011;23671;38.090;-122.570;2022-08-19T14:46:16;3.40;;;2.88;;
37831;SDS011;23671;38.090;-122.570;2022-08-19T14:48:45;3.90;;;3.10;;
37831;SDS011;23671;38.090;-122.570;2022-08-19T14:51:13;3.25;;;2.80;;
37831;SDS011;23671;38.090;-122.570;2022-08-19T14:53:41;3.33;;;2.78;;
37831;SDS011;23671;38.090;-122.570;2022-08-19T14:56:13;3.60;;;2.72;;
37831;SDS011;23671;38.090;-122.570;2022-08-19T14:58:42;2.95;;;2.13;;
37831;SDS011;23671;38.090;-122.570;2022-08-19T15:01:10;3.38;;;2.40;;
37831;SDS011;23671;38.090;-122.570;2022-08-19T15:03:38;3.63;;;2.40;;